1984 DARYL (1984067S09101)


On this page: IBTrACS data - Map and Plots - Positions - Intensities - Original source data

Summary

Start Mar 6
End Mar 20
Basin SI
LMI 95 kt
Sources jtwc_sh
bom
td9636
neumann
In WMO? Yes
Previous storm 1984 JIM (SP)
Previous in basin 1984 JIM (SP)
Concurrent storms 1984 JIM (SP)
1984 DARYL (SI)
1984 CYRIL (SP)
1984 KATHY (SP)
1984 MISSING (SP)
Next in basin 1984 KATHY (SP)
Next storm 1984 CYRIL (SP)

top of page IBTrACS Data: File Access

top of page HURSAT Data: File Access

Image of storm

top of page Plots:

Map of storm track will not appear if FTP is down
Time series of cyclone Maximum Sustained Wind will not appear if FTP is down
Time series of cyclone Minimum Central Pressure will not appear if FTP is down

top of page Track Data:Position

jtwc_sh bom td9636 neumann
Date Lat Lon Lat Lon Lat Lon Lat Lon
1984-03-06 12:00:00 -8.6 101.4 -8.6 101.4 -8.6 101.4
1984-03-06 18:00:00 -8.7 101.6 -8.7 101.7 -8.7 101.6
1984-03-07 00:00:00 -8.8 102.0 -8.8 102.0 -8.8 102.0
1984-03-07 06:00:00 -8.9 102.3 -8.9 102.2 -8.9 102.3
1984-03-07 12:00:00 -10.5 100.3 -9.1 102.4 -9.1 102.4 -9.1 102.4
1984-03-07 18:00:00 -10.4 100.7 -9.4 102.5 -9.3 102.6 -9.4 102.5
1984-03-08 00:00:00 -10.3 101.2 -9.6 102.7 -9.6 102.7 -9.6 102.7
1984-03-08 06:00:00 -10.2 101.7 -9.8 102.8 -9.8 102.8 -9.8 102.8
1984-03-08 12:00:00 -10.2 102.3 -10.0 103.0 -10.0 103.0 -10.0 103.0
1984-03-08 18:00:00 -10.3 102.8 -10.1 103.2 -10.1 103.2 -10.1 103.2
1984-03-09 00:00:00 -10.6 103.1 -10.3 103.3 -10.3 103.3 -10.3 103.3
1984-03-09 06:00:00 -11.1 103.2 -10.8 103.3 -10.8 103.4 -10.8 103.3
1984-03-09 12:00:00 -11.5 103.0 -11.3 103.3 -11.3 103.3 -11.3 103.3
1984-03-09 18:00:00 -11.7 102.6 -11.6 103.0 -11.6 103.1 -11.6 103.0
1984-03-10 00:00:00 -11.9 102.1 -11.8 102.6 -11.8 102.6 -11.8 102.6
1984-03-10 06:00:00 -12.1 101.6 -12.2 101.7 -12.1 101.7 -12.2 101.7
1984-03-10 12:00:00 -12.3 101.0 -12.4 100.7 -12.4 100.7 -12.4 100.7
1984-03-10 18:00:00 -12.5 100.1 -12.5 99.8 -12.5 99.7 -12.5 99.8
1984-03-11 00:00:00 -12.7 99.0 -12.5 98.8 -12.5 98.8 -12.5 98.8
1984-03-11 06:00:00 -12.9 97.8 -12.6 98.0 -12.7 97.9 -12.6 98.0
1984-03-11 12:00:00 -13.0 96.7 -12.9 97.0 -12.9 97.0 -12.9 97.0
1984-03-11 18:00:00 -13.0 95.7 -13.1 96.0 -13.1 95.9 -13.1 96.0
1984-03-12 00:00:00 -13.0 94.6 -13.4 94.7 -13.4 94.7 -13.4 94.7
1984-03-12 06:00:00 -13.2 93.4 -13.6 93.3 -13.6 93.4 -13.6 93.3
1984-03-12 12:00:00 -13.6 92.2 -13.9 92.1 -13.9 92.1 -13.9 92.1
jtwc_sh bom td9636 neumann
1984-03-12 18:00:00 -14.2 90.9 -14.5 91.0 -14.4 90.9 -14.5 91.0
1984-03-13 00:00:00 -14.8 89.7 -14.9 89.8 -14.9 89.8 -14.9 89.8
1984-03-13 06:00:00 -15.3 88.7 -15.4 88.6 -15.4 88.6 -15.4 88.6
1984-03-13 12:00:00 -15.9 87.8 -15.9 87.6 -15.9 87.6 -15.9 87.6
1984-03-13 18:00:00 -16.4 86.9 -16.4 86.9 -16.5 86.8 -16.4 86.9
1984-03-14 00:00:00 -17.0 86.0 -17.1 86.0 -17.1 86.0 -17.1 86.0
1984-03-14 06:00:00 -17.8 85.0 -17.8 85.2 -17.7 85.2 -17.8 85.2
1984-03-14 12:00:00 -18.6 84.0 -18.3 84.4 -18.3 84.4 -18.3 84.4
1984-03-14 18:00:00 -19.3 83.3 -18.6 83.9 -18.8 83.8 -18.6 83.9
1984-03-15 00:00:00 -19.9 82.7 -19.2 83.3 -19.2 83.3 -19.2 83.3
1984-03-15 06:00:00 -20.4 81.9 -19.7 82.6 -19.6 82.7 -19.7 82.6
1984-03-15 12:00:00 -20.9 81.1 -20.1 82.0 -20.1 82.0 -20.1 82.0
1984-03-15 18:00:00 -21.3 80.4 -20.8 81.2 -20.8 81.2 -20.8 81.2
1984-03-16 00:00:00 -21.7 79.8 -21.5 80.4 -21.5 80.4 -21.5 80.4
1984-03-16 06:00:00 -22.1 79.4 -22.1 79.5 -22.2 79.4 -22.1 79.5
1984-03-16 12:00:00 -22.5 79.1 -23.0 78.5 -23.0 78.5 -23.0 78.5
1984-03-16 18:00:00 -23.1 78.8 -23.6 77.9 -23.7 77.8 -23.6 77.9
1984-03-17 00:00:00 -23.7 78.5 -24.4 77.3 -24.4 77.3 -24.4 77.3
1984-03-17 06:00:00 -24.3 78.4 -25.3 76.9 -25.3 77.0 -25.3 76.9
1984-03-17 12:00:00 -24.9 78.5 -26.1 77.1 -26.1 77.1 -26.1 77.1
1984-03-17 18:00:00 -25.5 78.8 -26.6 77.7 -26.6 77.6 -26.6 77.7
1984-03-18 00:00:00 -26.2 79.2 -27.0 78.3 -27.0 78.3 -27.0 78.3
1984-03-18 06:00:00 -27.3 79.1 -27.3 79.0 -27.3 79.1
1984-03-18 12:00:00 -27.4 79.8 -27.4 79.8 -27.4 79.8
jtwc_sh bom td9636 neumann
1984-03-18 18:00:00 -27.5 80.6 -27.5 80.5 -27.5 80.6
1984-03-19 00:00:00 -27.6 81.5 -27.6 81.5 -27.6 81.5
1984-03-19 06:00:00 -27.7 82.7 -27.8 82.9 -27.7 82.7
1984-03-19 12:00:00 -28.0 84.4 -28.0 84.4 -28.0 84.4
1984-03-19 18:00:00 -28.1 86.0 -28.1 85.9 -28.1 86.0
1984-03-20 00:00:00 -28.2 87.4 -28.2 87.4 -28.2 87.4
1984-03-20 06:00:00 -28.2 88.9 -28.2 88.9 -28.2 88.9

top of pageTrack Data:Intensity

jtwc_sh bom td9636 neumann
Date Wind Pres Wind Pres Wind Pres Wind Pres
1984-03-06 12:00:00 1004. 22. 20. 1004.
1984-03-06 18:00:00 1003. 22. 25. 1003.
1984-03-07 00:00:00 1002. 27. 25. 1002.
1984-03-07 06:00:00 1001. 27. 25. 1001.
1984-03-07 12:00:00 25. 1001. 27. 25. 1001.
1984-03-07 18:00:00 25. 1001. 27. 25. 1001.
1984-03-08 00:00:00 25. 1000. 32. 30. 1000.
1984-03-08 06:00:00 25. 1000. 32. 30. 1000.
1984-03-08 12:00:00 30. 1000. 32. 30. 1000.
1984-03-08 18:00:00 30. 1000. 32. 30. 1000.
1984-03-09 00:00:00 30. 999. 32. 30. 999.
1984-03-09 06:00:00 25. 998. 32. 35. 998.
1984-03-09 12:00:00 25. 998. 32. 35. 998.
1984-03-09 18:00:00 25. 998. 32. 35. 998.
1984-03-10 00:00:00 25. 997. 32. 35. 997.
1984-03-10 06:00:00 25. 996. 32. 35. 996.
1984-03-10 12:00:00 25. 993. 38. 40. 993.
1984-03-10 18:00:00 25. 990. 38. 45. 990.
1984-03-11 00:00:00 30. 988. 49. 50. 988.
1984-03-11 06:00:00 35. 986. 49. 55. 986.
1984-03-11 12:00:00 40. 984. 54. 55. 984.
1984-03-11 18:00:00 40. 981. 54. 60. 981.
1984-03-12 00:00:00 45. 979. 59. 65. 979.
1984-03-12 06:00:00 45. 977. 59. 65. 977.
1984-03-12 12:00:00 50. 975. 65. 70. 975.
jtwc_sh bom td9636 neumann
1984-03-12 18:00:00 55. 973. 65. 70. 973.
1984-03-13 00:00:00 65. 970. 70. 75. 970.
1984-03-13 06:00:00 65. 966. 70. 80. 966.
1984-03-13 12:00:00 65. 960. 86. 85. 960.
1984-03-13 18:00:00 65. 958. 86. 90. 958.
1984-03-14 00:00:00 70. 956. 86. 90. 956.
1984-03-14 06:00:00 75. 955. 86. 95. 955.
1984-03-14 12:00:00 75. 956. 86. 90. 956.
1984-03-14 18:00:00 75. 958. 86. 90. 958.
1984-03-15 00:00:00 70. 964. 81. 80. 964.
1984-03-15 06:00:00 70. 972. 81. 70. 972.
1984-03-15 12:00:00 65. 976. 65. 65. 976.
1984-03-15 18:00:00 60. 981. 65. 60. 981.
1984-03-16 00:00:00 55. 988. 49. 50. 988.
1984-03-16 06:00:00 50. 992. 49. 45. 992.
1984-03-16 12:00:00 45. 996. 43. 35. 996.
1984-03-16 18:00:00 40. 994. 43. 40. 994.
1984-03-17 00:00:00 40. 996. 38. 35. 996.
1984-03-17 06:00:00 35. 997. 38. 35. 997.
1984-03-17 12:00:00 30. 998. 32. 35. 998.
1984-03-17 18:00:00 25. 999. 32. 30. 999.
1984-03-18 00:00:00 25. 1000. 32. 30. 1000.
1984-03-18 06:00:00 1001. 32. 25. 1001.
1984-03-18 12:00:00 1002. 27. 25. 1002.
jtwc_sh bom td9636 neumann
1984-03-18 18:00:00 1003. 27. 25. 1003.
1984-03-19 00:00:00 1004. 22. 20. 1004.
1984-03-19 06:00:00 1004. 22. 20. 1004.
1984-03-19 12:00:00 1005. 22. 20. 1005.
1984-03-19 18:00:00 1005. 22. 20. 1005.
1984-03-20 00:00:00 1006. 22. 15. 1006.
1984-03-20 06:00:00 1006. 22. 15. 1006.

top of page Links to source data

Source Source file Format
jtwc_sh bsh281984.txt ATCF
bom IDCKMSTM0S.csv:Line=15722:DARYL CSV file (from Excel file)
td9636 cons_worldwide_trop_cyclone_18710101-19891231-006:Line=12049 TD 9636
neumann tracks.sh:Storm=710:DARYL:BSH2684:BM699 HURDAT